createdAt,value
2019-03-24T00:00:07.993Z,102937.30
2019-03-24T00:02:36.741Z,102934.86
2019-03-24T00:05:06.407Z,102944.58
2019-03-24T00:07:35.019Z,102941.77
2019-03-24T00:10:04.583Z,102942.25
2019-03-24T00:12:33.213Z,102960.03
2019-03-24T00:15:01.886Z,102943.38
2019-03-24T00:17:30.603Z,102945.67
2019-03-24T00:19:59.258Z,102947.20
2019-03-24T00:22:28.004Z,102948.41
2019-03-24T00:24:56.702Z,102955.57
2019-03-24T00:27:25.492Z,102962.92
2019-03-24T00:29:57.240Z,102959.64
2019-03-24T00:32:25.934Z,102965.53
2019-03-24T00:34:54.627Z,102961.66
2019-03-24T00:37:23.276Z,102962.70
2019-03-24T00:39:52.016Z,102962.92
2019-03-24T00:42:20.827Z,102958.81
2019-03-24T00:44:49.433Z,102954.45
2019-03-24T00:47:18.075Z,102948.99
2019-03-24T00:49:46.762Z,102953.75
2019-03-24T00:52:15.508Z,102945.66
2019-03-24T00:54:44.222Z,102943.38
2019-03-24T00:57:12.969Z,102935.73
2019-03-24T00:59:41.702Z,102931.60
2019-03-24T01:02:10.527Z,102917.25
2019-03-24T01:04:39.235Z,102915.23
2019-03-24T01:07:08.016Z,102921.36
2019-03-24T01:09:36.767Z,102915.56
2019-03-24T01:12:06.736Z,102912.83
2019-03-24T01:14:35.457Z,102903.10
2019-03-24T01:17:04.947Z,102901.99
2019-03-24T01:19:33.607Z,102809.09
2019-03-24T01:22:02.369Z,102899.42
2019-03-24T01:24:31.057Z,102894.09
2019-03-24T01:26:59.832Z,102891.13
2019-03-24T01:29:28.528Z,102887.00
2019-03-24T01:31:57.150Z,102888.53
2019-03-24T01:34:25.939Z,102883.69
2019-03-24T01:36:54.559Z,102886.84
2019-03-24T01:39:23.306Z,102885.86
2019-03-24T01:41:51.983Z,102879.75
2019-03-24T01:44:20.744Z,102886.45
2019-03-24T01:46:49.634Z,102884.37
2019-03-24T01:49:18.310Z,102892.10
2019-03-24T01:51:46.929Z,102888.36
2019-03-24T01:54:15.605Z,102886.40
2019-03-24T01:56:44.291Z,102884.20
2019-03-24T01:59:13.076Z,102887.99
2019-03-24T02:01:41.700Z,102884.04
2019-03-24T02:04:10.455Z,102879.42
2019-03-24T02:06:39.145Z,102882.49
2019-03-24T02:09:08.736Z,102884.51
2019-03-24T02:11:37.400Z,102879.17
2019-03-24T02:14:06.271Z,102883.63
2019-03-24T02:16:34.966Z,102884.59
2019-03-24T02:19:03.698Z,102878.78
2019-03-24T02:21:38.911Z,102882.42
2019-03-24T02:24:10.207Z,102875.20
2019-03-24T02:26:38.974Z,102874.91
2019-03-24T02:29:07.711Z,102863.56
2019-03-24T02:31:36.400Z,102861.39
2019-03-24T02:34:05.260Z,102851.79
2019-03-24T02:36:33.949Z,102861.98
2019-03-24T02:39:02.711Z,102860.94
2019-03-24T02:41:31.649Z,102853.87
2019-03-24T02:44:00.404Z,102858.27
2019-03-24T02:46:29.063Z,102858.36
2019-03-24T02:48:57.879Z,102850.81
2019-03-24T02:51:26.647Z,102856.01
2019-03-24T02:53:55.509Z,102854.59
2019-03-24T02:56:24.188Z,102856.55
2019-03-24T02:58:52.918Z,102858.29
2019-03-24T03:01:21.674Z,102853.73
2019-03-24T03:03:50.394Z,102850.46
2019-03-24T03:06:19.143Z,102855.02
2019-03-24T03:08:47.751Z,102849.06
2019-03-24T03:11:17.011Z,102853.69
2019-03-24T03:13:45.834Z,102759.41
2019-03-24T03:16:14.569Z,102845.81
2019-03-24T03:18:43.285Z,102837.55
2019-03-24T03:21:12.191Z,102832.31
2019-03-24T03:23:41.059Z,102833.37
2019-03-24T03:26:09.727Z,102823.69
2019-03-24T03:28:38.456Z,102819.77
2019-03-24T03:31:07.236Z,102814.31
2019-03-24T03:33:35.891Z,102819.40
2019-03-24T03:36:05.170Z,102825.00
2019-03-24T03:38:33.877Z,102820.45
2019-03-24T03:41:02.577Z,102817.30
2019-03-24T03:43:31.548Z,102815.36
2019-03-24T03:46:00.162Z,102809.76
2019-03-24T03:48:28.877Z,102817.80
2019-03-24T03:50:57.713Z,102817.80
2019-03-24T03:53:26.450Z,102811.78
2019-03-24T03:55:55.168Z,102811.78
2019-03-24T03:58:23.871Z,102810.61
2019-03-24T04:00:52.688Z,102811.58
2019-03-24T04:03:21.351Z,102821.09
2019-03-24T04:05:50.015Z,102821.47
2019-03-24T04:08:18.700Z,102821.23
2019-03-24T04:10:47.410Z,102818.25
2019-03-24T04:13:16.176Z,102816.64
2019-03-24T04:15:45.026Z,102819.84
2019-03-24T04:18:13.727Z,102823.22
2019-03-24T04:20:42.543Z,102820.89
2019-03-24T04:23:11.331Z,102823.78
2019-03-24T04:25:40.065Z,102819.22
2019-03-24T04:28:09.469Z,102818.91
2019-03-24T04:30:38.261Z,102810.31
2019-03-24T04:33:07.026Z,102808.98
2019-03-24T04:35:35.724Z,102804.44
2019-03-24T04:38:05.461Z,102798.34
2019-03-24T04:40:35.068Z,102809.05
2019-03-24T04:43:03.834Z,102804.99
2019-03-24T04:45:32.521Z,102794.77
2019-03-24T04:48:01.185Z,102792.17
2019-03-24T04:50:29.865Z,102795.32
2019-03-24T04:52:58.511Z,102795.53
2019-03-24T04:55:27.273Z,102799.96
2019-03-24T04:57:55.896Z,102790.29
2019-03-24T05:00:40.959Z,102796.94
2019-03-24T05:03:09.677Z,102793.03
2019-03-24T05:05:40.065Z,102788.89
2019-03-24T05:08:10.839Z,102787.48
2019-03-24T05:10:39.554Z,102785.09
2019-03-24T05:13:08.288Z,102780.02
2019-03-24T05:15:37.021Z,102777.84
2019-03-24T05:18:05.714Z,102773.62
2019-03-24T05:20:34.478Z,102772.45
2019-03-24T05:23:03.119Z,102773.70
2019-03-24T05:25:31.898Z,102767.52
2019-03-24T05:28:00.650Z,102759.26
2019-03-24T05:30:29.407Z,102759.89
2019-03-24T05:32:58.084Z,102754.97
2019-03-24T05:35:26.811Z,102764.00
2019-03-24T05:37:55.421Z,102760.41
2019-03-24T05:40:24.004Z,102756.13
2019-03-24T05:42:52.592Z,102756.68
2019-03-24T05:45:21.379Z,102752.59
2019-03-24T05:47:50.058Z,102763.49
2019-03-24T05:50:18.767Z,102759.86
2019-03-24T05:52:47.495Z,102757.00
2019-03-24T05:55:16.203Z,102756.93
2019-03-24T05:57:45.005Z,102756.28
2019-03-24T06:00:14.624Z,102760.19
2019-03-24T06:02:43.399Z,102763.98
2019-03-24T06:05:12.333Z,102758.50
2019-03-24T06:07:40.998Z,102753.98
2019-03-24T06:10:10.033Z,102752.27
2019-03-24T06:12:38.756Z,102751.67
2019-03-24T06:15:10.468Z,102747.09
2019-03-24T06:17:47.400Z,102733.43
2019-03-24T06:20:10.930Z,102726.77
2019-03-24T06:22:39.655Z,102727.72
2019-03-24T06:25:08.517Z,102726.80
2019-03-24T06:27:37.246Z,102717.38
2019-03-24T06:30:08.447Z,102719.62
2019-03-24T06:32:37.157Z,102709.37
2019-03-24T06:35:09.661Z,102714.39
2019-03-24T06:37:38.589Z,102729.77
2019-03-24T06:40:07.418Z,102718.95
2019-03-24T06:42:36.091Z,102713.09
2019-03-24T06:45:07.089Z,102708.41
2019-03-24T06:47:35.926Z,102706.89
2019-03-24T06:50:08.010Z,102704.70
2019-03-24T06:52:36.726Z,102709.09
2019-03-24T06:55:16.274Z,102594.47
2019-03-24T06:57:45.099Z,102574.46
2019-03-24T07:00:15.296Z,102725.14
2019-03-24T07:02:44.233Z,102726.64
2019-03-24T07:05:13.067Z,102728.22
2019-03-24T07:07:41.721Z,102736.84
2019-03-24T07:10:11.307Z,102735.66
2019-03-24T07:12:40.096Z,102733.49
2019-03-24T07:15:10.402Z,102730.42
2019-03-24T07:17:39.134Z,102732.95
2019-03-24T07:20:09.294Z,102735.06
2019-03-24T07:22:38.056Z,102740.92
2019-03-24T07:25:24.951Z,102743.69
2019-03-24T07:27:55.320Z,102753.94
2019-03-24T07:30:24.092Z,102746.31
2019-03-24T07:32:52.904Z,102747.27
2019-03-24T07:35:21.737Z,102749.56
2019-03-24T07:37:50.542Z,102743.18
2019-03-24T07:40:19.415Z,102747.47
2019-03-24T07:42:48.331Z,102744.61
2019-03-24T07:45:17.181Z,102744.64
2019-03-24T07:47:48.984Z,102741.59
2019-03-24T07:50:18.978Z,102739.66
2019-03-24T07:52:47.752Z,102732.58
2019-03-24T07:55:16.450Z,102740.86
2019-03-24T07:57:45.183Z,102747.14
2019-03-24T08:00:15.952Z,102761.52
2019-03-24T08:02:53.196Z,102765.17
2019-03-24T08:05:21.963Z,102756.36
2019-03-24T08:07:54.587Z,102748.77
2019-03-24T08:10:23.945Z,102745.66
2019-03-24T08:12:52.940Z,102737.97
2019-03-24T08:15:38.887Z,102723.98
2019-03-24T08:18:07.803Z,102718.95
2019-03-24T08:20:37.106Z,102714.19
2019-03-24T08:23:11.544Z,102713.23
2019-03-24T08:25:40.750Z,102706.50
2019-03-24T08:28:09.922Z,102698.40
2019-03-24T08:30:39.401Z,102686.52
2019-03-24T08:33:08.136Z,102692.54
2019-03-24T08:35:37.063Z,102693.07
2019-03-24T08:38:18.464Z,102681.39
2019-03-24T08:40:48.065Z,102678.58
2019-03-24T08:43:16.935Z,102684.63
2019-03-24T08:45:45.663Z,102686.42
2019-03-24T08:48:27.592Z,102697.30
2019-03-24T08:50:56.351Z,102700.66
2019-03-24T08:53:25.726Z,102700.33
2019-03-24T08:55:54.577Z,102702.21
2019-03-24T08:58:23.211Z,102703.20
2019-03-24T09:00:51.965Z,102703.17
2019-03-24T09:03:20.963Z,102702.14
2019-03-24T09:05:49.948Z,102707.63
2019-03-24T09:08:18.611Z,102709.95
2019-03-24T09:10:47.262Z,102711.59
2019-03-24T09:13:16.110Z,102712.10
2019-03-24T09:15:44.912Z,102713.57
2019-03-24T09:18:13.675Z,102711.82
2019-03-24T09:20:43.510Z,102699.44
2019-03-24T09:23:12.171Z,102686.72
2019-03-24T09:25:40.921Z,102689.41
2019-03-24T09:28:12.970Z,102688.41
2019-03-24T09:30:41.727Z,102677.26
2019-03-24T09:33:10.458Z,102661.53
2019-03-24T09:35:39.404Z,102665.68
2019-03-24T09:38:08.761Z,102661.27
2019-03-24T09:40:37.665Z,102652.06
2019-03-24T09:43:07.341Z,102654.77
2019-03-24T09:45:36.172Z,102650.23
2019-03-24T09:48:07.539Z,102646.37
2019-03-24T09:50:36.360Z,102639.31
2019-03-24T09:53:05.281Z,102635.03
2019-03-24T09:55:37.266Z,102639.02
2019-03-24T09:58:06.043Z,102639.96
2019-03-24T10:00:35.489Z,102636.79
2019-03-24T10:03:04.360Z,102632.97
2019-03-24T10:05:33.008Z,102643.67
2019-03-24T10:08:04.913Z,102637.32
2019-03-24T10:10:33.620Z,102626.45
2019-03-24T10:13:02.601Z,102622.51
2019-03-24T10:15:31.295Z,102615.70
2019-03-24T10:18:00.344Z,102616.09
2019-03-24T10:20:29.154Z,102614.05
2019-03-24T10:22:57.985Z,102628.83
2019-03-24T10:25:26.746Z,102628.30
2019-03-24T10:27:55.565Z,102625.33
2019-03-24T10:30:24.289Z,102628.39
2019-03-24T10:32:52.986Z,102630.77
2019-03-24T10:35:21.648Z,102631.85
2019-03-24T10:37:50.542Z,102631.33
2019-03-24T10:40:28.091Z,102629.50
2019-03-24T10:42:50.764Z,102632.24
2019-03-24T10:45:23.232Z,102634.05
2019-03-24T10:47:55.724Z,102624.63
2019-03-24T10:50:25.655Z,102621.81
2019-03-24T10:52:56.444Z,102621.11
2019-03-24T10:55:25.209Z,102627.51
2019-03-24T10:57:53.982Z,102623.42
2019-03-24T11:00:29.113Z,102626.69
2019-03-24T11:02:58.810Z,102621.78
2019-03-24T11:05:28.723Z,102615.79
2019-03-24T11:07:58.205Z,102608.30
2019-03-24T11:10:27.778Z,102613.91
2019-03-24T11:12:57.598Z,102611.95
2019-03-24T11:15:27.339Z,102602.58
2019-03-24T11:17:57.067Z,102605.19
2019-03-24T11:20:26.763Z,102604.34
2019-03-24T11:23:01.100Z,102599.09
2019-03-24T11:25:43.027Z,102605.95
2019-03-24T11:28:13.842Z,102610.16
2019-03-24T11:30:43.509Z,102602.06
2019-03-24T11:33:13.132Z,102606.91
2019-03-24T11:35:42.338Z,102608.22
2019-03-24T11:38:11.682Z,102596.84
2019-03-24T11:40:40.692Z,102587.84
2019-03-24T11:43:09.517Z,102590.99
2019-03-24T11:45:38.908Z,102593.50
2019-03-24T11:48:07.825Z,102587.05
2019-03-24T11:50:36.945Z,102590.69
2019-03-24T11:53:05.825Z,102587.45
2019-03-24T11:55:36.880Z,102570.64
2019-03-24T11:58:06.416Z,102564.27
2019-03-24T12:00:43.532Z,102559.10
2019-03-24T12:03:12.519Z,102558.81
2019-03-24T12:05:41.162Z,102550.88
2019-03-24T12:08:10.223Z,102540.52
2019-03-24T12:10:38.933Z,102541.69
2019-03-24T12:13:14.156Z,102543.47
2019-03-24T12:15:43.531Z,102541.50
2019-03-24T12:18:12.855Z,102546.52
2019-03-24T12:20:41.812Z,102539.82
2019-03-24T12:23:10.525Z,102537.58
2019-03-24T12:25:39.262Z,102525.78
2019-03-24T12:28:09.206Z,102515.55
2019-03-24T12:30:40.256Z,102516.33
2019-03-24T12:33:11.136Z,102513.08
2019-03-24T12:35:39.837Z,102508.75
2019-03-24T12:38:09.411Z,102506.70
2019-03-24T12:40:38.167Z,102501.60
2019-03-24T12:43:06.967Z,102495.41
2019-03-24T12:45:36.378Z,102499.13
2019-03-24T12:48:05.599Z,102500.45
2019-03-24T12:50:35.182Z,102426.37
2019-03-24T12:53:04.110Z,102477.97
2019-03-24T12:55:32.815Z,102475.70
2019-03-24T12:58:01.594Z,102464.55
2019-03-24T13:00:34.766Z,102467.56
2019-03-24T13:03:03.639Z,102463.50
2019-03-24T13:05:32.419Z,102468.89
2019-03-24T13:08:12.566Z,102456.53
2019-03-24T13:10:48.242Z,102460.37
2019-03-24T13:13:17.046Z,102460.64
2019-03-24T13:15:54.258Z,102453.77
2019-03-24T13:18:23.467Z,102444.77
2019-03-24T13:20:52.150Z,102436.81
2019-03-24T13:23:20.867Z,102433.75
2019-03-24T13:25:50.638Z,102425.17
2019-03-24T13:28:19.655Z,102422.64
2019-03-24T13:30:48.388Z,102425.50
2019-03-24T13:33:17.226Z,102418.88
2019-03-24T13:35:46.153Z,102423.08
2019-03-24T13:38:15.539Z,102418.07
2019-03-24T13:40:44.153Z,102411.77
2019-03-24T13:43:12.920Z,102410.57
2019-03-24T13:45:41.674Z,102408.96
2019-03-24T13:48:10.301Z,102403.55
2019-03-24T13:50:39.010Z,102408.51
2019-03-24T13:53:07.667Z,102398.93
2019-03-24T13:55:36.373Z,102396.80
2019-03-24T13:58:05.792Z,102395.50
2019-03-24T14:00:34.542Z,102394.57
2019-03-24T14:03:03.336Z,102389.25
2019-03-24T14:05:32.150Z,102394.84
2019-03-24T14:08:00.795Z,102393.48
2019-03-24T14:10:29.555Z,102384.72
2019-03-24T14:12:58.207Z,102383.39
2019-03-24T14:15:26.887Z,102377.27
2019-03-24T14:17:55.787Z,102377.41
2019-03-24T14:20:24.660Z,102376.70
2019-03-24T14:22:55.307Z,102379.48
2019-03-24T14:25:23.835Z,102384.92
2019-03-24T14:27:52.562Z,102382.08
2019-03-24T14:30:24.245Z,102383.20
2019-03-24T14:32:53.069Z,102373.00
2019-03-24T14:35:21.841Z,102368.27
2019-03-24T14:37:50.677Z,102368.74
2019-03-24T14:40:19.435Z,102368.17
2019-03-24T14:42:48.236Z,102358.97
2019-03-24T14:45:16.988Z,102356.58
2019-03-24T14:47:45.714Z,102357.32
2019-03-24T14:50:14.578Z,102359.09
2019-03-24T14:52:43.302Z,102344.48
2019-03-24T14:55:12.022Z,102350.61
2019-03-24T14:57:40.894Z,102357.55
2019-03-24T15:00:10.886Z,102350.33
2019-03-24T15:02:40.857Z,102352.02
2019-03-24T15:05:10.077Z,102348.11
2019-03-24T15:07:38.848Z,102344.22
2019-03-24T15:10:08.162Z,102341.92
2019-03-24T15:12:36.927Z,102339.59
2019-03-24T15:15:07.424Z,102338.70
2019-03-24T15:17:36.245Z,102334.28
2019-03-24T15:20:07.328Z,102333.83
2019-03-24T15:22:36.161Z,102325.37
2019-03-24T15:25:08.347Z,102332.06
2019-03-24T15:27:37.112Z,102328.34
2019-03-24T15:30:08.544Z,102317.80
2019-03-24T15:32:37.296Z,102316.64
2019-03-24T15:35:07.435Z,102323.19
2019-03-24T15:37:36.292Z,102317.81
2019-03-24T15:40:07.762Z,102318.30
2019-03-24T15:42:36.524Z,102226.37
2019-03-24T15:45:07.850Z,102312.87
2019-03-24T15:47:36.556Z,102268.96
2019-03-24T15:50:09.066Z,102300.87
2019-03-24T15:52:37.874Z,102277.43
2019-03-24T15:55:07.717Z,102196.87
2019-03-24T15:57:36.410Z,102307.92
2019-03-24T16:00:07.814Z,102305.22
2019-03-24T16:02:36.589Z,102297.13
2019-03-24T16:05:06.815Z,102308.59
2019-03-24T16:07:35.506Z,102187.23
2019-03-24T16:10:08.152Z,102299.78
2019-03-24T16:12:37.186Z,102306.73
2019-03-24T16:15:08.213Z,102291.52
2019-03-24T16:17:36.956Z,102288.77
2019-03-24T16:20:07.279Z,102283.63
2019-03-24T16:22:35.971Z,102286.66
2019-03-24T16:25:07.287Z,102281.38
2019-03-24T16:27:36.099Z,102293.82
2019-03-24T16:30:08.425Z,102293.91
2019-03-24T16:32:37.247Z,102295.91
2019-03-24T16:35:07.768Z,102277.26
2019-03-24T16:37:36.404Z,102292.55
2019-03-24T16:40:08.306Z,102284.55
2019-03-24T16:42:37.597Z,102291.20
2019-03-24T16:45:06.587Z,102291.33
2019-03-24T16:47:35.472Z,102293.31
2019-03-24T16:50:09.450Z,102296.73
2019-03-24T16:52:38.140Z,102266.33
2019-03-24T16:55:07.668Z,102281.25
2019-03-24T16:57:36.400Z,102286.98
2019-03-24T17:00:08.400Z,102287.58
2019-03-24T17:02:37.161Z,102268.09
2019-03-24T17:05:07.356Z,102283.11
2019-03-24T17:07:36.327Z,102284.89
2019-03-24T17:10:08.052Z,102282.56
2019-03-24T17:12:36.879Z,102290.09
2019-03-24T17:15:08.416Z,102273.38
2019-03-24T17:17:37.649Z,102274.89
2019-03-24T17:20:08.417Z,102271.38
2019-03-24T17:22:41.426Z,102276.19
2019-03-24T17:25:11.355Z,102277.48
2019-03-24T17:27:41.056Z,102267.54
2019-03-24T17:30:13.310Z,102258.84
2019-03-24T17:32:42.119Z,102256.28
2019-03-24T17:35:11.908Z,102253.48
2019-03-24T17:37:41.454Z,102247.67
2019-03-24T17:40:14.832Z,102244.22
2019-03-24T17:42:43.533Z,102248.80
2019-03-24T17:45:14.147Z,102247.45
2019-03-24T17:47:42.774Z,102250.02
2019-03-24T17:50:13.895Z,102238.89
2019-03-24T17:52:43.614Z,102241.17
2019-03-24T17:55:12.620Z,102238.00
2019-03-24T17:57:41.992Z,102238.78
2019-03-24T18:00:15.057Z,102233.59
2019-03-24T18:02:44.151Z,102233.34
2019-03-24T18:05:16.395Z,102233.20
2019-03-24T18:07:45.101Z,102241.98
2019-03-24T18:10:15.358Z,102239.91
2019-03-24T18:12:44.669Z,102245.95
2019-03-24T18:15:13.402Z,102236.19
2019-03-24T18:17:42.180Z,102232.73
2019-03-24T18:20:13.894Z,102233.93
2019-03-24T18:22:42.640Z,102234.72
2019-03-24T18:25:11.493Z,102234.89
2019-03-24T18:27:40.100Z,102234.79
2019-03-24T18:30:11.332Z,102235.23
2019-03-24T18:32:40.042Z,102230.73
2019-03-24T18:35:11.266Z,102239.86
2019-03-24T18:37:41.399Z,102241.03
2019-03-24T18:40:12.581Z,102233.46
2019-03-24T18:42:41.388Z,102240.12
2019-03-24T18:45:12.310Z,102245.11
2019-03-24T18:47:45.512Z,102240.30
2019-03-24T18:50:15.235Z,102238.30
2019-03-24T18:52:43.773Z,102225.25
2019-03-24T18:55:12.705Z,102224.27
2019-03-24T18:57:42.103Z,102219.97
2019-03-24T19:00:13.729Z,102222.94
2019-03-24T19:02:42.385Z,102222.67
2019-03-24T19:05:12.166Z,102220.56
2019-03-24T19:07:40.807Z,102221.62
2019-03-24T19:10:11.625Z,102223.70
2019-03-24T19:12:40.431Z,102220.24
2019-03-24T19:15:13.372Z,102220.39
2019-03-24T19:17:42.334Z,102211.83
2019-03-24T19:20:19.558Z,102214.13
2019-03-24T19:22:49.863Z,102207.17
2019-03-24T19:25:18.700Z,102204.48
2019-03-24T19:27:48.229Z,102204.42
2019-03-24T19:30:19.702Z,102212.37
2019-03-24T19:32:48.347Z,102199.50
2019-03-24T19:35:17.781Z,102205.34
2019-03-24T19:37:47.649Z,102204.69
2019-03-24T19:40:27.605Z,102189.55
2019-03-24T19:42:56.503Z,102203.92
2019-03-24T19:45:25.817Z,102195.95
2019-03-24T19:48:04.259Z,102205.86
2019-03-24T19:50:34.694Z,102203.87
2019-03-24T19:53:03.590Z,102210.38
2019-03-24T19:55:41.080Z,102213.32
2019-03-24T19:58:10.007Z,102208.83
2019-03-24T20:00:38.890Z,102209.42
2019-03-24T20:03:07.683Z,102204.73
2019-03-24T20:05:36.364Z,102203.77
2019-03-24T20:08:05.184Z,102201.92
2019-03-24T20:10:50.628Z,102199.54
2019-03-24T20:13:21.700Z,102196.42
2019-03-24T20:15:50.564Z,102193.97
2019-03-24T20:18:19.199Z,102188.80
2019-03-24T20:20:47.952Z,102194.17
2019-03-24T20:23:16.819Z,102184.79
2019-03-24T20:25:45.599Z,102184.79
2019-03-24T20:28:14.218Z,102172.08
2019-03-24T20:30:42.908Z,102170.66
2019-03-24T20:33:11.607Z,102163.48
2019-03-24T20:35:40.280Z,102154.14
2019-03-24T20:38:09.091Z,102153.84
2019-03-24T20:40:37.689Z,102154.31
2019-03-24T20:43:06.356Z,102154.84
2019-03-24T20:45:35.091Z,102150.73
2019-03-24T20:48:03.903Z,102147.30
2019-03-24T20:50:32.670Z,102148.37
2019-03-24T20:53:05.573Z,102145.44
2019-03-24T20:55:34.338Z,102141.72
2019-03-24T20:58:02.273Z,102144.86
2019-03-24T21:00:36.377Z,102138.86
2019-03-24T21:03:07.170Z,102136.97
2019-03-24T21:05:36.011Z,102132.09
2019-03-24T21:08:05.110Z,102127.60
2019-03-24T21:10:34.102Z,102101.45
2019-03-24T21:13:03.163Z,102117.95
2019-03-24T21:15:32.673Z,102116.66
2019-03-24T21:18:02.839Z,102107.64
2019-03-24T21:20:32.438Z,102106.23
2019-03-24T21:23:01.159Z,102098.07
2019-03-24T21:25:32.336Z,102088.13
2019-03-24T21:28:00.968Z,102087.69
2019-03-24T21:30:37.857Z,102086.88
2019-03-24T21:33:07.378Z,102084.77
2019-03-24T21:35:48.294Z,102086.30
2019-03-24T21:38:18.608Z,102083.63
2019-03-24T21:40:48.199Z,102081.56
2019-03-24T21:43:19.946Z,102078.08
2019-03-24T21:45:48.687Z,102069.34
2019-03-24T21:48:17.487Z,102066.93
2019-03-24T21:50:46.227Z,102068.61
2019-03-24T21:53:15.444Z,102062.45
2019-03-24T21:55:45.576Z,102048.66
2019-03-24T21:58:17.983Z,102050.56
2019-03-24T22:00:46.683Z,102043.30
2019-03-24T22:03:15.344Z,102031.95
2019-03-24T22:05:44.404Z,102034.92
2019-03-24T22:08:13.130Z,102025.89
2019-03-24T22:10:41.771Z,102027.42
2019-03-24T22:13:10.520Z,102025.02
2019-03-24T22:15:39.155Z,102007.98
2019-03-24T22:18:09.334Z,102007.40
2019-03-24T22:20:48.455Z,102003.67
2019-03-24T22:23:08.440Z,102009.11
2019-03-24T22:25:37.192Z,102002.28
2019-03-24T22:28:05.914Z,101992.73
2019-03-24T22:30:34.766Z,101983.67
2019-03-24T22:33:03.469Z,101983.67
2019-03-24T22:35:32.177Z,101977.81
2019-03-24T22:38:00.960Z,101970.70
2019-03-24T22:40:29.667Z,101974.21
2019-03-24T22:42:58.322Z,101964.45
2019-03-24T22:45:26.963Z,101969.95
2019-03-24T22:47:55.666Z,101912.05
2019-03-24T22:50:24.426Z,101952.28
2019-03-24T22:52:53.040Z,101937.75
2019-03-24T22:55:21.683Z,101925.28
2019-03-24T22:57:50.411Z,101930.84
2019-03-24T23:00:20.960Z,101916.49
2019-03-24T23:02:49.670Z,101921.05
2019-03-24T23:05:18.398Z,101912.90
2019-03-24T23:07:47.210Z,101895.82
2019-03-24T23:10:15.926Z,101896.66
2019-03-24T23:12:44.617Z,101889.88
2019-03-24T23:15:13.471Z,101671.73
2019-03-24T23:17:42.260Z,101879.29
2019-03-24T23:20:10.901Z,101873.86
2019-03-24T23:22:39.543Z,101873.35
2019-03-24T23:25:08.322Z,101863.47
2019-03-24T23:27:37.054Z,101853.47
2019-03-24T23:30:07.841Z,101850.66
2019-03-24T23:32:36.580Z,101843.21
2019-03-24T23:35:06.895Z,101837.01
2019-03-24T23:37:35.712Z,101830.31
2019-03-24T23:40:08.704Z,101829.36
2019-03-24T23:42:37.444Z,101725.05
2019-03-24T23:45:07.941Z,101817.42
2019-03-24T23:47:36.607Z,101812.84
2019-03-24T23:50:06.709Z,101810.36
2019-03-24T23:52:35.389Z,101773.55
2019-03-24T23:55:04.753Z,101790.55
2019-03-24T23:57:33.497Z,101783.73
